Time;durP1;ratioP1;P1;durP2;ratioP2;P2;SDS_P1;SDS_P2;PMS_P1;PMS_P2;Temp;Humidity;BMP_temperature;BMP_pressure;BME280_temperature;BME280_humidity;BME280_pressure;Samples;Min_cycle;Max_cycle;Signal;HPM_P1;HPM_P2
2022/05/11 00:02:11;;;;;;;;;;;;;;;25.21;46.29;94494.28;5015178;28;7064;-57
2022/05/11 00:04:38;;;;;;;;;;;;;;;25.17;46.12;94495.78;5032570;28;9573;-56
2022/05/11 00:07:04;;;;;;;;;;;;;;;25.18;46.33;94497.28;5015775;28;9448;-56
2022/05/11 00:09:30;;;;;;;;;;;;;;;25.20;45.85;94494.78;5002292;28;7240;-56
2022/05/11 00:11:56;;;;;;;;;;;;;;;25.19;46.20;94494.03;5028766;28;8229;-56
2022/05/11 00:14:24;;;;;;;;;;;;;;;25.21;45.72;94490.75;5016083;28;9058;-56
2022/05/11 00:16:52;;;;;;;;;;;;;;;25.22;46.14;94495.03;5031390;28;7196;-56
2022/05/11 00:19:20;;;;;;;;;;;;;;;25.18;46.06;94491.78;5016484;28;7380;-56
2022/05/11 00:21:48;;;;;;;;;;;;;;;25.15;45.81;94490.03;5013181;28;9281;-56
2022/05/11 00:24:14;;;;;;;;;;;;;;;25.15;45.68;94488.03;5030624;28;9086;-56
2022/05/11 00:26:41;;;;;;;;;;;;;;;25.17;45.99;94491.03;5027238;28;9029;-56
2022/05/11 00:29:07;;;;;;;;;;;;;;;25.17;45.92;94482.03;5016275;28;8779;-56
2022/05/11 00:31:39;;;;;;;;;;;;;;;25.14;45.81;94486.53;5015370;28;9122;-56
2022/05/11 00:34:05;;;;;;;;;;;;;;;25.09;45.77;94479.06;5009203;28;9451;-56
2022/05/11 00:36:40;;;;;;;;;;;;;;;25.11;46.38;94486.81;5013930;28;9034;-56
2022/05/11 00:39:06;;;;;;;;;;;;;;;25.11;45.97;94479.31;5011991;28;7252;-55
2022/05/11 00:41:39;;;;;;;;;;;;;;;25.11;46.05;94478.53;5010241;28;7327;-56
2022/05/11 00:44:09;;;;;;;;;;;;;;;25.13;46.02;94487.03;5011242;28;9375;-56
2022/05/11 00:47:10;;;;;;;;;;;;;;;25.14;46.33;94475.53;5028665;28;7268;-55
2022/05/11 00:49:43;;;;;;;;;;;;;;;25.12;45.75;94478.03;4971259;28;8784;-55
2022/05/11 00:52:19;;;;;;;;;;;;;;;25.11;45.92;94475.78;4956378;28;9793;-56
2022/05/11 00:54:59;;;;;;;;;;;;;;;25.12;46.34;94471.81;4948256;28;7057;-56
2022/05/11 00:57:51;;;;;;;;;;;;;;;25.13;46.19;94467.78;4970723;28;8272;-55
2022/05/11 01:00:44;;;;;;;;;;;;;;;25.13;46.35;94467.78;4964788;28;7378;-55
2022/05/11 01:03:23;;;;;;;;;;;;;;;25.10;45.95;94469.53;4975332;28;9188;-55
2022/05/11 01:05:54;;;;;;;;;;;;;;;25.09;45.83;94472.81;4970878;28;9501;-56
2022/05/11 01:08:21;;;;;;;;;;;;;;;25.09;45.66;94465.31;4952102;28;9212;-55
2022/05/11 01:10:49;;;;;;;;;;;;;;;25.10;45.76;94469.53;4955872;28;7258;-56
2022/05/11 01:13:18;;;;;;;;;;;;;;;25.10;46.34;94463.31;4955825;28;7074;-56
2022/05/11 01:15:56;;;;;;;;;;;;;;;25.12;45.43;94466.28;4950927;28;8246;-55
2022/05/11 01:18:44;;;;;;;;;;;;;;;25.11;46.48;94464.78;4960036;28;7021;-56
2022/05/11 01:21:12;;;;;;;;;;;;;;;25.10;45.84;94466.78;4965023;28;8626;-56
2022/05/11 01:24:08;;;;;;;;;;;;;;;25.08;46.30;94460.28;4978974;28;9639;-55
2022/05/11 01:26:36;;;;;;;;;;;;;;;25.09;45.36;94464.53;5017062;28;7361;-56
2022/05/11 01:29:13;;;;;;;;;;;;;;;25.11;45.99;94460.03;5031886;28;7654;-56
2022/05/11 01:31:43;;;;;;;;;;;;;;;25.11;45.92;94460.03;5015167;28;9128;-55
2022/05/11 01:34:20;;;;;;;;;;;;;;;25.11;45.35;94454.53;5014747;28;7274;-56
2022/05/11 01:36:53;;;;;;;;;;;;;;;25.10;45.62;94450.28;5031213;28;9071;-56
2022/05/11 01:39:19;;;;;;;;;;;;;;;25.06;45.92;94446.28;5003431;28;9123;-56
2022/05/11 01:41:54;;;;;;;;;;;;;;;25.10;46.05;94452.28;5012247;28;7171;-56
2022/05/11 01:44:24;;;;;;;;;;;;;;;25.09;45.78;94451.53;5013873;28;7512;-56
2022/05/11 01:46:54;;;;;;;;;;;;;;;25.06;45.28;94451.78;5014346;28;7561;-56
2022/05/11 01:49:24;;;;;;;;;;;;;;;25.06;46.15;94451.78;5013701;28;7003;-56
2022/05/11 01:52:04;;;;;;;;;;;;;;;25.05;46.02;94444.78;5011817;28;7191;-56
2022/05/11 01:54:43;;;;;;;;;;;;;;;25.06;46.12;94446.28;5028859;28;8908;-56
2022/05/11 01:57:47;;;;;;;;;;;;;;;25.05;46.15;94444.78;5010960;28;7281;-55
2022/05/11 02:00:13;;;;;;;;;;;;;;;25.05;45.66;94444.78;4997272;28;9803;-55
2022/05/11 02:03:04;;;;;;;;;;;;;;;25.07;46.05;94448.53;4999661;28;9225;-55
2022/05/11 02:08:17;;;;;;;;;;;;;;;25.03;45.99;94448.06;4990188;28;7271;-55
2022/05/11 02:10:43;;;;;;;;;;;;;;;25.04;45.98;94446.03;4992201;28;9340;-55
2022/05/11 02:13:10;;;;;;;;;;;;;;;25.02;46.01;94446.56;5001145;28;7212;-55
2022/05/11 02:15:38;;;;;;;;;;;;;;;25.04;46.25;94446.78;4997410;28;7967;-56
2022/05/11 02:18:23;;;;;;;;;;;;;;;25.03;45.70;94442.56;4989228;28;7012;-55
2022/05/11 02:20:59;;;;;;;;;;;;;;;25.03;46.26;94439.06;5005503;28;9075;-56
2022/05/11 02:23:25;;;;;;;;;;;;;;;25.03;45.45;94450.06;5002264;28;8908;-55
2022/05/11 02:25:52;;;;;;;;;;;;;;;25.02;46.42;94443.03;4990125;28;7454;-55
2022/05/11 02:28:21;;;;;;;;;;;;;;;25.00;46.05;94445.56;5002783;28;7058;-55
2022/05/11 02:30:49;;;;;;;;;;;;;;;25.02;45.62;94445.78;4986078;28;9088;-55
2022/05/11 02:33:17;;;;;;;;;;;;;;;25.01;45.31;94444.31;4980423;28;9532;-56
2022/05/11 02:35:44;;;;;;;;;;;;;;;24.99;46.13;94450.31;5009705;28;7248;-55
2022/05/11 02:38:24;;;;;;;;;;;;;;;24.99;46.01;94449.56;5025825;28;7701;-56
2022/05/11 02:40:58;;;;;;;;;;;;;;;25.00;46.05;94454.56;5013061;28;8870;-55
2022/05/11 02:43:27;;;;;;;;;;;;;;;25.00;45.52;94443.56;5013069;28;8767;-55
2022/05/11 02:46:31;;;;;;;;;;;;;;;24.98;45.68;94443.31;4996342;28;8984;-55
2022/05/11 02:48:58;;;;;;;;;;;;;;;24.97;45.20;94452.81;4938875;28;7535;-55
2022/05/11 02:51:24;;;;;;;;;;;;;;;24.97;45.81;94454.84;4944529;28;7112;-55
2022/05/11 02:54:21;;;;;;;;;;;;;;;24.97;45.95;94452.81;4946461;28;8916;-55
2022/05/11 02:57:06;;;;;;;;;;;;;;;24.99;45.60;94457.84;4882084;29;9071;-55
2022/05/11 02:59:32;;;;;;;;;;;;;;;25.00;45.64;94459.31;4878082;29;8783;-56
2022/05/11 03:02:32;;;;;;;;;;;;;;;24.99;45.19;94455.81;4874063;29;9451;-55
2022/05/11 03:04:58;;;;;;;;;;;;;;;24.95;45.81;94449.81;4855915;29;9506;-55
2022/05/11 03:07:23;;;;;;;;;;;;;;;24.94;45.60;94450.34;4836730;29;9624;-55
2022/05/11 03:09:51;;;;;;;;;;;;;;;24.96;46.03;94456.09;4839389;29;9146;-55
2022/05/11 03:12:26;;;;;;;;;;;;;;;24.95;45.48;94455.31;4847472;29;8035;-55
2022/05/11 03:14:55;;;;;;;;;;;;;;;24.95;45.28;94452.56;4851788;29;7034;-55
2022/05/11 03:17:21;;;;;;;;;;;;;;;24.95;45.16;94452.56;4859085;29;9195;-55
2022/05/11 03:19:47;;;;;;;;;;;;;;;24.90;46.00;94447.84;4841704;29;9259;-55
2022/05/11 03:22:15;;;;;;;;;;;;;;;24.92;45.91;94452.84;4862071;29;8139;-56
2022/05/11 03:24:46;;;;;;;;;;;;;;;24.91;45.75;94454.09;4854858;29;7284;-55
2022/05/11 03:27:14;;;;;;;;;;;;;;;24.90;45.42;94449.84;4871252;29;7006;-56
2022/05/11 03:29:40;;;;;;;;;;;;;;;24.85;45.59;94445.84;4870264;29;9041;-55
2022/05/11 03:34:53;;;;;;;;;;;;;;;24.89;45.36;94445.59;4962862;28;9074;-56
2022/05/11 03:37:19;;;;;;;;;;;;;;;24.89;45.43;94462.09;4948225;28;7208;-55
2022/05/11 03:39:48;;;;;;;;;;;;;;;24.89;46.12;94442.84;4971451;28;7407;-56
2022/05/11 03:42:22;;;;;;;;;;;;;;;24.87;45.59;94448.09;5012202;28;7301;-56
2022/05/11 03:44:48;;;;;;;;;;;;;;;24.87;46.00;94450.84;5030727;28;7514;-56
2022/05/11 03:47:14;;;;;;;;;;;;;;;24.83;45.84;94444.84;5006071;28;7513;-55
2022/05/11 03:49:40;;;;;;;;;;;;;;;24.86;45.73;94446.63;5009162;28;7567;-56
2022/05/11 03:52:09;;;;;;;;;;;;;;;24.84;45.50;94449.13;5012473;28;7256;-56
2022/05/11 03:54:37;;;;;;;;;;;;;;;24.83;45.29;94445.63;5025478;28;7835;-55
2022/05/11 03:57:03;;;;;;;;;;;;;;;24.82;45.37;94443.34;5026962;28;9116;-55
2022/05/11 03:59:33;;;;;;;;;;;;;;;24.83;45.74;94447.59;5026848;28;6989;-56
2022/05/11 04:02:01;;;;;;;;;;;;;;;24.82;46.01;94446.09;5017804;28;7981;-56
2022/05/11 04:04:27;;;;;;;;;;;;;;;24.80;45.79;94441.09;5024684;28;7225;-56
2022/05/11 04:06:53;;;;;;;;;;;;;;;24.79;45.81;94452.63;5022794;28;7187;-55
2022/05/11 04:09:19;;;;;;;;;;;;;;;24.80;45.67;94456.84;5017208;28;7976;-57
2022/05/11 04:11:47;;;;;;;;;;;;;;;24.81;45.79;94450.13;5015726;28;7292;-55
2022/05/11 04:14:13;;;;;;;;;;;;;;;24.77;45.71;94460.63;5009316;28;7099;-55
2022/05/11 04:16:41;;;;;;;;;;;;;;;24.79;46.01;94460.88;5020239;28;6992;-55
2022/05/11 04:19:07;;;;;;;;;;;;;;;24.77;45.54;94455.88;5009011;28;7178;-56
2022/05/11 04:21:33;;;;;;;;;;;;;;;24.73;45.95;94458.84;5013763;28;7252;-55
2022/05/11 04:23:59;;;;;;;;;;;;;;;24.73;45.81;94458.09;5033155;28;9048;-55
2022/05/11 04:26:30;;;;;;;;;;;;;;;24.73;45.90;94464.34;5009446;28;9076;-56
2022/05/11 04:28:56;;;;;;;;;;;;;;;24.73;45.90;94468.38;5008046;28;7111;-56
2022/05/11 04:32:01;;;;;;;;;;;;;;;24.73;45.46;94461.59;5026158;28;9142;-56
2022/05/11 04:34:30;;;;;;;;;;;;;;;24.70;45.56;94470.88;5014455;28;9095;-55
2022/05/11 04:36:56;;;;;;;;;;;;;;;24.73;45.98;94469.84;5024540;28;6863;-56
2022/05/11 04:39:33;;;;;;;;;;;;;;;24.71;45.96;94466.84;5012572;28;9199;-56
2022/05/11 04:42:18;;;;;;;;;;;;;;;24.71;45.55;94466.84;5016226;28;8557;-56
2022/05/11 04:44:53;;;;;;;;;;;;;;;24.68;45.49;94476.09;5009939;28;9372;-56
2022/05/11 04:47:20;;;;;;;;;;;;;;;24.66;45.57;94470.34;5007099;28;9009;-56
2022/05/11 04:50:15;;;;;;;;;;;;;;;24.68;45.62;94470.59;5029683;28;7087;-55
2022/05/11 04:52:51;;;;;;;;;;;;;;;24.67;45.06;94471.88;4949242;28;7420;-57
2022/05/11 04:55:19;;;;;;;;;;;;;;;24.66;45.53;94470.34;4958548;28;8492;-56
2022/05/11 04:57:49;;;;;;;;;;;;;;;24.67;45.54;94471.88;4970936;28;9625;-55
2022/05/11 05:00:17;;;;;;;;;;;;;;;24.71;45.18;94477.09;4955725;28;7159;-56
2022/05/11 05:02:53;;;;;;;;;;;;;;;24.66;45.40;94469.63;4950989;28;7199;-55
2022/05/11 05:05:20;;;;;;;;;;;;;;;24.65;44.89;94477.13;4969192;28;9125;-55
2022/05/11 05:07:46;;;;;;;;;;;;;;;24.65;45.49;94474.38;4950681;28;7007;-55
2022/05/11 05:10:15;;;;;;;;;;;;;;;24.66;45.41;94475.13;4966225;28;9157;-55
2022/05/11 05:12:43;;;;;;;;;;;;;;;24.66;45.10;94481.34;4951787;28;7225;-55
2022/05/11 05:15:15;;;;;;;;;;;;;;;24.65;44.75;94479.13;4953748;28;7362;-56
2022/05/11 05:17:52;;;;;;;;;;;;;;;24.63;45.37;94474.13;4964970;28;7724;-56
2022/05/11 05:20:28;;;;;;;;;;;;;;;24.63;44.96;94481.63;4967075;28;7276;-56
2022/05/11 05:22:56;;;;;;;;;;;;;;;24.64;44.95;94481.13;4946140;28;7294;-56
2022/05/11 05:25:22;;;;;;;;;;;;;;;24.66;44.82;94489.63;4952019;28;8810;-56
2022/05/11 05:31:04;;;;;;;;;;;;;;;24.62;44.74;94478.13;4948164;28;7411;-56
2022/05/11 05:33:34;;;;;;;;;;;;;;;24.63;45.20;94492.63;5027625;28;6870;-56
2022/05/11 05:36:02;;;;;;;;;;;;;;;24.67;45.26;94491.13;5024288;28;8065;-55
2022/05/11 05:38:29;;;;;;;;;;;;;;;24.70;44.75;94492.88;5008014;28;9023;-56
2022/05/11 05:40:57;;;;;;;;;;;;;;;24.69;46.49;94498.88;5023817;28;7411;-56
2022/05/11 05:43:26;;;;;;;;;;;;;;;24.68;45.90;94500.84;5023049;28;9050;-56
2022/05/11 05:45:54;;;;;;;;;;;;;;;24.70;45.42;94501.13;5018121;28;7018;-57
2022/05/11 05:48:25;;;;;;;;;;;;;;;24.72;45.44;94497.88;5019358;28;7306;-57
2022/05/11 05:50:52;;;;;;;;;;;;;;;24.78;45.08;94511.63;5007467;28;7720;-56
2022/05/11 05:53:21;;;;;;;;;;;;;;;24.77;44.82;94515.66;5028420;28;8669;-57
2022/05/11 05:55:48;;;;;;;;;;;;;;;24.73;45.27;94513.88;5015287;28;7251;-57
2022/05/11 05:58:20;;;;;;;;;;;;;;;24.71;45.38;94510.88;5022186;28;6996;-57
2022/05/11 06:00:46;;;;;;;;;;;;;;;24.71;45.19;94505.38;5013720;28;8747;-57
2022/05/11 06:03:25;;;;;;;;;;;;;;;24.68;45.18;94505.63;5007516;28;9089;-57
2022/05/11 06:05:53;;;;;;;;;;;;;;;24.66;45.69;94503.38;5019925;28;7274;-57
2022/05/11 06:08:19;;;;;;;;;;;;;;;24.66;45.56;94506.13;5009519;28;9045;-57
2022/05/11 06:10:49;;;;;;;;;;;;;;;24.66;46.14;94508.88;5030474;28;9063;-57
2022/05/11 06:13:28;;;;;;;;;;;;;;;24.65;45.96;94499.13;5022817;28;7071;-57
2022/05/11 06:16:24;;;;;;;;;;;;;;;24.66;46.00;94502.63;5017542;28;8592;-57
2022/05/11 06:18:50;;;;;;;;;;;;;;;24.66;45.50;94502.63;4977409;28;7584;-57
2022/05/11 06:21:18;;;;;;;;;;;;;;;24.63;46.02;94498.88;4973185;28;9018;-56
2022/05/11 06:23:48;;;;;;;;;;;;;;;24.65;45.44;94504.63;4974422;28;9418;-56
2022/05/11 06:26:21;;;;;;;;;;;;;;;24.65;45.33;94507.38;4993736;28;7226;-57
2022/05/11 06:28:48;;;;;;;;;;;;;;;24.65;45.88;94504.63;4986208;28;7594;-56
2022/05/11 06:31:26;;;;;;;;;;;;;;;24.66;46.15;94505.38;4980908;28;7005;-56
2022/05/11 06:33:54;;;;;;;;;;;;;;;24.65;45.84;94501.88;4969019;28;7189;-56
2022/05/11 06:36:23;;;;;;;;;;;;;;;24.65;45.85;94499.13;4979649;28;7397;-57
2022/05/11 06:38:53;;;;;;;;;;;;;;;24.66;46.18;94499.88;4968045;28;9030;-56
2022/05/11 06:41:24;;;;;;;;;;;;;;;24.63;45.84;94500.88;4987617;28;9129;-56
2022/05/11 06:43:58;;;;;;;;;;;;;;;24.65;45.65;94501.88;4979524;28;7099;-56
2022/05/11 06:46:35;;;;;;;;;;;;;;;24.65;45.92;94499.13;4996022;28;9435;-56
2022/05/11 06:49:03;;;;;;;;;;;;;;;24.64;45.90;94494.88;4985879;28;7191;-56
2022/05/11 06:51:40;;;;;;;;;;;;;;;24.64;45.55;94497.63;4973657;28;8772;-56
2022/05/11 06:59:41;;;;;;;;;;;;;;;24.66;46.20;94503.38;5025949;28;8818;-57
2022/05/11 07:02:07;;;;;;;;;;;;;;;24.66;46.15;94505.38;5005923;28;9625;-56
2022/05/11 07:04:35;;;;;;;;;;;;;;;24.67;46.05;94509.63;5007925;28;7085;-56
2022/05/11 07:07:02;;;;;;;;;;;;;;;24.67;45.18;94504.88;5016282;28;9123;-56
2022/05/11 07:09:31;;;;;;;;;;;;;;;24.69;45.40;94498.88;5025788;28;7271;-56
2022/05/11 07:12:21;;;;;;;;;;;;;;;24.68;44.64;94495.34;5021511;28;9503;-57
2022/05/11 07:14:57;;;;;;;;;;;;;;;24.69;44.95;94494.13;5016948;28;9425;-56
2022/05/11 07:17:49;;;;;;;;;;;;;;;24.67;44.52;94488.38;5004637;28;8970;-56
2022/05/11 07:20:37;;;;;;;;;;;;;;;24.70;44.28;94490.13;5013517;28;6976;-57
2022/05/11 07:23:07;;;;;;;;;;;;;;;24.71;45.41;94494.38;5023014;28;7211;-56
2022/05/11 07:25:40;;;;;;;;;;;;;;;24.69;44.56;94491.38;5012549;28;7279;-57
2022/05/11 07:28:16;;;;;;;;;;;;;;;24.69;44.63;94488.63;5015488;28;9748;-57
2022/05/11 07:30:53;;;;;;;;;;;;;;;24.71;44.59;94486.13;5013611;28;9108;-57
2022/05/11 07:33:21;;;;;;;;;;;;;;;24.71;44.93;94483.38;5024918;28;9055;-56
2022/05/11 07:36:13;;;;;;;;;;;;;;;24.71;44.17;94483.38;5030433;28;7934;-57
2022/05/11 07:38:53;;;;;;;;;;;;;;;24.73;44.68;94486.34;5013023;28;7353;-56
2022/05/11 07:41:19;;;;;;;;;;;;;;;24.72;44.81;94484.13;5015326;28;7241;-57
2022/05/11 07:43:50;;;;;;;;;;;;;;;24.70;45.01;94492.13;5026663;28;7023;-57
2022/05/11 07:46:16;;;;;;;;;;;;;;;24.70;44.89;94481.13;5004864;28;7262;-56
2022/05/11 07:48:47;;;;;;;;;;;;;;;24.80;45.30;94485.13;5028393;28;7063;-57
2022/05/11 07:51:14;;;;;;;;;;;;;;;25.01;44.90;94477.34;5007521;28;6864;-57
2022/05/11 07:53:40;;;;;;;;;;;;;;;25.38;44.55;94472.94;5030700;28;7188;-57
2022/05/11 08:02:11;;;;;;;;;;;;;;;25.12;46.94;94469.78;5032926;28;9471;-57
2022/05/11 08:04:38;;;;;;;;;;;;;;;25.06;47.05;94469.06;5032377;28;7060;-57
2022/05/11 08:07:04;;;;;;;;;;;;;;;25.01;47.14;94469.09;5015230;28;7241;-57
2022/05/11 08:09:32;;;;;;;;;;;;;;;24.94;48.03;94475.84;5015882;28;8824;-57
2022/05/11 08:11:58;;;;;;;;;;;;;;;24.92;46.61;94477.59;5015559;28;9148;-57
2022/05/11 08:14:25;;;;;;;;;;;;;;;24.90;47.10;94477.38;5015167;28;9112;-57
2022/05/11 08:16:52;;;;;;;;;;;;;;;24.85;48.02;94473.38;5030632;28;7287;-57
2022/05/11 08:19:20;;;;;;;;;;;;;;;24.82;47.75;94470.84;5007576;28;6998;-57
2022/05/11 08:22:02;;;;;;;;;;;;;;;24.81;47.55;94474.88;5032606;28;7000;-57
2022/05/11 08:24:33;;;;;;;;;;;;;;;24.77;47.76;94463.38;5013483;28;7514;-57
2022/05/11 08:27:09;;;;;;;;;;;;;;;24.78;47.44;94462.13;5024808;28;9602;-57
2022/05/11 08:35:11;;;;;;;;;;;;;;;24.77;46.74;94466.91;4999901;28;7325;-57
2022/05/11 08:37:37;;;;;;;;;;;;;;;24.77;47.21;94469.66;5011950;28;7344;-57
2022/05/11 08:40:05;;;;;;;;;;;;;;;24.78;47.17;94462.88;5025102;28;9199;-57
2022/05/11 08:42:34;;;;;;;;;;;;;;;24.78;46.71;94464.88;5015881;28;8141;-57
2022/05/11 08:45:02;;;;;;;;;;;;;;;24.77;47.15;94466.13;5007463;28;9180;-57
2022/05/11 08:47:53;;;;;;;;;;;;;;;24.80;46.89;94468.63;5025548;28;9005;-57
2022/05/11 08:50:33;;;;;;;;;;;;;;;24.77;46.98;94458.63;5010413;28;7295;-57
2022/05/11 08:53:26;;;;;;;;;;;;;;;24.78;46.67;94457.38;5012411;28;7232;-57
2022/05/11 08:55:57;;;;;;;;;;;;;;;24.77;47.10;94457.88;5015627;28;8781;-57
2022/05/11 08:58:41;;;;;;;;;;;;;;;24.78;46.99;94459.38;5014340;28;9014;-57
2022/05/11 09:01:18;;;;;;;;;;;;;;;24.78;46.84;94460.13;5006159;28;7523;-57
2022/05/11 09:03:45;;;;;;;;;;;;;;;24.80;46.99;94462.38;5011145;28;7070;-46
2022/05/11 09:06:24;;;;;;;;;;;;;;;24.79;46.92;94458.88;5015629;28;9049;-57
2022/05/11 09:08:51;;;;;;;;;;;;;;;24.79;47.09;94455.38;5005953;28;7205;-57
2022/05/11 09:11:29;;;;;;;;;;;;;;;24.81;46.67;94450.88;5015865;28;9052;-57
2022/05/11 09:13:57;;;;;;;;;;;;;;;24.81;46.72;94447.38;5021645;28;9112;-57
2022/05/11 09:16:38;;;;;;;;;;;;;;;24.80;47.04;94454.09;5018619;28;9078;-57
2022/05/11 09:19:14;;;;;;;;;;;;;;;24.80;46.67;94440.34;5024423;28;7283;-57
2022/05/11 09:21:50;;;;;;;;;;;;;;;24.78;47.00;94443.63;5025740;28;8627;-57
2022/05/11 09:24:21;;;;;;;;;;;;;;;24.83;46.84;94447.59;5012725;28;7022;-57
2022/05/11 09:27:23;;;;;;;;;;;;;;;24.84;46.70;94449.13;5014838;28;8714;-57
2022/05/11 09:30:01;;;;;;;;;;;;;;;24.89;46.70;94448.34;4952999;28;7689;-57
2022/05/11 09:32:37;;;;;;;;;;;;;;;24.90;46.73;94438.84;4951800;28;7230;-57
2022/05/11 09:35:35;;;;;;;;;;;;;;;24.90;46.50;94442.34;4964613;28;7958;-57
2022/05/11 09:38:26;;;;;;;;;;;;;;;24.94;46.61;94444.84;4939937;28;8672;-57
2022/05/11 09:40:53;;;;;;;;;;;;;;;24.94;45.89;94433.81;4954783;28;7264;-57
2022/05/11 09:43:39;;;;;;;;;;;;;;;24.96;46.34;94442.31;4947000;28;7713;-57
2022/05/11 09:46:22;;;;;;;;;;;;;;;24.94;46.34;94445.59;4964090;28;8978;-57
2022/05/11 09:49:14;;;;;;;;;;;;;;;24.95;45.68;94444.31;4952657;28;9355;-57
2022/05/11 09:51:54;;;;;;;;;;;;;;;24.97;45.75;94443.84;4945931;28;7286;-57
2022/05/11 09:54:32;;;;;;;;;;;;;;;24.97;46.27;94441.81;4965332;28;8742;-57
2022/05/11 09:57:03;;;;;;;;;;;;;;;24.98;45.55;94439.81;4969350;28;7021;-57
2022/05/11 09:59:43;;;;;;;;;;;;;;;25.03;44.86;94430.78;4952386;28;9564;-57
2022/05/11 10:02:46;;;;;;;;;;;;;;;25.04;45.35;94432.28;4944908;28;7628;-57
2022/05/11 10:05:28;;;;;;;;;;;;;;;25.03;45.12;94436.31;4971852;28;7270;-57
2022/05/11 10:08:04;;;;;;;;;;;;;;;25.03;45.45;94428.03;5017383;28;9560;-57
2022/05/11 10:10:59;;;;;;;;;;;;;;;25.03;45.29;94426.03;5014986;28;7288;-57
2022/05/11 10:13:46;;;;;;;;;;;;;;;25.04;45.68;94429.53;5018814;28;7266;-57
2022/05/11 10:22:17;;;;;;;;;;;;;;;25.06;45.65;94429.78;5025621;28;7280;-57
2022/05/11 10:25:02;;;;;;;;;;;;;;;25.06;45.25;94427.00;5007244;28;8166;-57
2022/05/11 10:27:45;;;;;;;;;;;;;;;25.05;46.08;94422.78;5017109;28;7551;-57
2022/05/11 10:30:17;;;;;;;;;;;;;;;25.07;45.21;94420.28;5005059;28;8051;-57
2022/05/11 10:32:54;;;;;;;;;;;;;;;25.07;45.80;94414.78;4995437;28;9373;-57
2022/05/11 10:35:36;;;;;;;;;;;;;;;25.07;45.81;94414.78;4998978;28;8904;-57
2022/05/11 10:38:11;;;;;;;;;;;;;;;25.07;45.66;94423.78;5011812;28;7232;-57
2022/05/11 10:41:00;;;;;;;;;;;;;;;25.07;46.38;94414.78;5024948;28;7416;-57
2022/05/11 10:43:51;;;;;;;;;;;;;;;25.06;46.31;94407.75;4996018;28;7267;-57
2022/05/11 10:46:27;;;;;;;;;;;;;;;25.06;45.36;94402.25;5008395;28;7477;-57
2022/05/11 10:49:32;;;;;;;;;;;;;;;25.07;45.90;94401.75;5008111;28;7408;-57
2022/05/11 10:52:14;;;;;;;;;;;;;;;25.10;45.16;94392.47;5000389;28;7524;-57
2022/05/11 10:55:15;;;;;;;;;;;;;;;25.10;44.25;94386.25;5010000;28;7082;-57
2022/05/11 10:57:58;;;;;;;;;;;;;;;25.12;43.96;94394.75;5017134;28;9323;-57
2022/05/11 11:00:26;;;;;;;;;;;;;;;25.14;44.35;94387.44;4997100;28;9219;-57
2022/05/11 11:03:25;;;;;;;;;;;;;;;25.16;42.93;94381.44;5013455;28;8777;-57
2022/05/11 11:08:45;;;;;;;;;;;;;;;25.17;43.33;94380.19;5023821;28;9082;-57
2022/05/11 11:11:29;;;;;;;;;;;;;;;25.21;42.74;94380.66;5015325;28;7903;-56
2022/05/11 11:14:11;;;;;;;;;;;;;;;25.25;42.46;94367.41;5007183;28;7413;-57
2022/05/11 11:16:41;;;;;;;;;;;;;;;25.23;42.78;94367.13;5012457;28;9045;-57
2022/05/11 11:19:14;;;;;;;;;;;;;;;25.25;42.30;94368.13;5010034;28;9088;-56
2022/05/11 11:21:47;;;;;;;;;;;;;;;25.29;42.61;94365.13;5005939;28;7036;-56
2022/05/11 11:24:27;;;;;;;;;;;;;;;25.30;41.58;94356.34;5027518;28;9380;-56
2022/05/11 11:27:04;;;;;;;;;;;;;;;25.27;41.76;94353.88;5008306;28;7206;-57
2022/05/11 11:29:37;;;;;;;;;;;;;;;25.30;41.19;94361.09;5007571;28;8690;-58
2022/05/11 11:32:03;;;;;;;;;;;;;;;25.30;41.86;94361.84;5025695;28;9173;-57
2022/05/11 11:34:33;;;;;;;;;;;;;;;25.30;40.75;94356.34;4995202;28;7353;-57
2022/05/11 11:37:25;;;;;;;;;;;;;;;25.33;41.14;94346.31;5004528;28;7473;-56
2022/05/11 11:39:53;;;;;;;;;;;;;;;25.35;41.16;94349.31;5006852;28;9061;-56
2022/05/11 11:42:46;;;;;;;;;;;;;;;25.36;41.38;94345.28;5022478;28;8972;-56
2022/05/11 11:45:37;;;;;;;;;;;;;;;25.36;41.24;94342.53;4922764;29;7067;-56
2022/05/11 11:48:23;;;;;;;;;;;;;;;25.41;40.22;94339.00;4898254;29;7273;-56
2022/05/11 11:50:55;;;;;;;;;;;;;;;25.42;39.59;94346.03;4927338;29;8747;-56
2022/05/11 11:53:40;;;;;;;;;;;;;;;25.43;40.10;94331.00;4927818;29;8056;-56
2022/05/11 11:56:25;;;;;;;;;;;;;;;25.42;39.89;94333.00;4914044;29;9416;-56
2022/05/11 11:59:35;;;;;;;;;;;;;;;25.41;40.52;94328.00;4918891;29;8777;-57
2022/05/11 12:02:07;;;;;;;;;;;;;;;25.40;40.74;94327.22;4907631;29;9498;-56
2022/05/11 12:04:42;;;;;;;;;;;;;;;25.40;39.61;94323.75;4916545;29;7520;-57
2022/05/11 12:15:42;;;;;;;;;;;;;;;25.47;39.71;94314.94;4924118;29;9070;-57
2022/05/11 12:18:32;;;;;;;;;;;;;;;25.52;39.77;94303.16;4931074;29;6864;-57
2022/05/11 12:21:21;;;;;;;;;;;;;;;25.53;40.17;94304.66;4930425;28;7178;-57
2022/05/11 12:24:04;;;;;;;;;;;;;;;25.58;39.41;94305.88;5003270;28;9402;-57
2022/05/11 12:26:38;;;;;;;;;;;;;;;25.61;39.82;94307.59;5005212;28;7321;-56
2022/05/11 12:32:07;;;;;;;;;;;;;;;25.62;39.50;94307.06;5024485;28;7370;-56
2022/05/11 12:34:41;;;;;;;;;;;;;;;25.65;39.20;94306.06;5014114;28;7933;-57
2022/05/11 12:38:12;;;;;;;;;;;;;;;25.66;39.22;94298.56;5011246;28;8953;-56
2022/05/11 12:40:47;;;;;;;;;;;;;;;25.66;39.94;94291.03;4942587;28;7974;-56
2022/05/11 12:43:32;;;;;;;;;;;;;;;25.68;40.63;94298.78;4959958;28;9464;-56
2022/05/11 12:46:02;;;;;;;;;;;;;;;25.68;40.37;94296.03;4951187;28;9062;-57
2022/05/11 12:49:00;;;;;;;;;;;;;;;25.66;40.20;94293.78;4972670;28;8373;-57
2022/05/11 12:51:53;;;;;;;;;;;;;;;25.62;41.07;94287.78;4894581;29;7419;-57
2022/05/11 12:54:26;;;;;;;;;;;;;;;25.65;41.63;94284.03;4877948;29;6865;-57
2022/05/11 12:57:08;;;;;;;;;;;;;;;25.62;41.62;94287.78;4888850;29;8998;-56
2022/05/11 12:59:54;;;;;;;;;;;;;;;25.61;41.41;94286.31;4892956;29;7361;-56
2022/05/11 13:02:34;;;;;;;;;;;;;;;25.68;41.41;94285.00;4893109;29;9551;-56
2022/05/11 13:05:06;;;;;;;;;;;;;;;25.67;41.22;94283.50;4877196;29;9926;-57
2022/05/11 13:07:44;;;;;;;;;;;;;;;25.67;41.85;94278.75;4877895;29;7329;-56
2022/05/11 13:10:18;;;;;;;;;;;;;;;25.67;41.47;94276.00;4898119;29;7292;-56
2022/05/11 13:12:51;;;;;;;;;;;;;;;25.74;41.81;94272.69;4931315;28;9113;-56
2022/05/11 13:15:33;;;;;;;;;;;;;;;25.74;41.51;94267.19;4908591;29;9200;-56
2022/05/11 13:17:59;;;;;;;;;;;;;;;25.80;40.79;94265.09;4928694;28;9176;-57
2022/05/11 13:20:43;;;;;;;;;;;;;;;25.82;41.98;94253.56;4917215;29;8694;-57
2022/05/11 13:23:24;;;;;;;;;;;;;;;25.86;41.14;94249.25;4924944;29;8967;-57
2022/05/11 13:25:56;;;;;;;;;;;;;;;25.89;41.55;94250.25;4922999;28;7028;-57
2022/05/11 13:28:38;;;;;;;;;;;;;;;25.90;41.19;94246.97;4997725;28;7247;-56
2022/05/11 13:31:28;;;;;;;;;;;;;;;25.93;41.89;94243.19;5005661;28;9374;-56
2022/05/11 13:34:05;;;;;;;;;;;;;;;25.94;41.25;94244.69;5007996;28;7278;-56
2022/05/11 13:36:46;;;;;;;;;;;;;;;25.99;41.14;94232.84;5012609;28;7871;-56
2022/05/11 13:39:13;;;;;;;;;;;;;;;25.99;41.14;94234.88;5024395;28;9019;-57
2022/05/11 13:42:19;;;;;;;;;;;;;;;26.02;41.24;94242.84;5009934;28;9091;-57
2022/05/11 13:45:00;;;;;;;;;;;;;;;26.05;41.25;94238.31;4946760;28;6872;-56
2022/05/11 13:50:50;;;;;;;;;;;;;;;26.09;41.41;94233.28;4945210;28;6887;-57
2022/05/11 13:53:21;;;;;;;;;;;;;;;26.09;40.80;94238.81;4949272;28;6888;-57
2022/05/11 13:56:09;;;;;;;;;;;;;;;26.10;41.57;94232.75;4929104;28;9118;-57
2022/05/11 13:58:39;;;;;;;;;;;;;;;26.13;41.30;94228.97;4950558;28;7466;-57
2022/05/11 14:01:16;;;;;;;;;;;;;;;26.12;41.41;94235.75;4943875;28;9385;-57
2022/05/11 14:03:42;;;;;;;;;;;;;;;26.19;40.56;94239.22;4930093;28;8115;-57
2022/05/11 14:06:14;;;;;;;;;;;;;;;26.20;40.86;94240.69;4943513;28;9091;-56
2022/05/11 14:08:40;;;;;;;;;;;;;;;26.22;41.48;94229.88;4945729;28;9073;-57
2022/05/11 14:11:09;;;;;;;;;;;;;;;26.25;41.30;94231.63;4937963;28;7335;-57
2022/05/11 14:13:52;;;;;;;;;;;;;;;26.25;41.28;94226.84;4936397;28;9153;-57
2022/05/11 14:16:27;;;;;;;;;;;;;;;26.31;41.37;94229.53;4945927;28;8759;-57
2022/05/11 14:18:58;;;;;;;;;;;;;;;26.32;41.20;94231.03;4938576;28;9347;-57
2022/05/11 14:21:26;;;;;;;;;;;;;;;26.34;41.51;94229.22;4984917;28;7452;-57
2022/05/11 14:23:57;;;;;;;;;;;;;;;26.35;40.81;94225.22;5009324;28;9024;-57
2022/05/11 14:26:25;;;;;;;;;;;;;;;26.38;40.93;94226.91;5022987;28;9184;-56
2022/05/11 14:28:53;;;;;;;;;;;;;;;26.40;40.37;94226.41;5028503;28;9806;-57